Terminal Aerodrome Forecast
Issued by NWS

Home | Current Version | Previous Version | Text Only | Print | Product List | Glossary On
Versions: 1 2 3 4 5 6 7 8 9 10 11 12 13 14 15 16 17 18
000
FTUS46 KPQR 200520
TAFONP
TAF
KONP 200520Z 2006/2106 21008KT 2SM -RA BR OVC003
     FM201500 24012KT 3SM -RA BR OVC015
     FM201700 22012KT 4SM -RA BR SCT015 OVC035
     FM210000 23005KT 5SM BR OVC010=

USA.gov is the U.S. government's official web portal to all federal, state and local government web resources and services.